Time;durP1;ratioP1;P1;durP2;ratioP2;P2;SDS_P1;SDS_P2;PMS_P1;PMS_P2;Temp;Humidity;BMP_temperature;BMP_pressure;BME280_temperature;BME280_humidity;BME280_pressure;Samples;Min_cycle;Max_cycle;Signal;HPM_P1;HPM_P2
2023/10/21 00:01:30;;;;;;;0.83;0.80;;;7.60;99.90;;;;;;5009928;28;20549;-69
2023/10/21 00:03:57;;;;;;;0.87;0.70;;;7.60;99.90;;;;;;5011411;28;20769;-69
2023/10/21 00:06:24;;;;;;;0.77;0.77;;;7.60;99.90;;;;;;5011112;28;20260;-68
2023/10/21 00:08:51;;;;;;;1.33;0.70;;;7.60;99.90;;;;;;5013318;28;20253;-68
2023/10/21 00:11:19;;;;;;;1.70;0.93;;;7.60;99.90;;;;;;5012475;28;20206;-70
2023/10/21 00:13:46;;;;;;;1.13;0.60;;;7.60;99.90;;;;;;5012648;28;20199;-69
2023/10/21 00:16:16;;;;;;;0.60;0.60;;;7.60;99.90;;;;;;5011627;28;20269;-69
2023/10/21 00:18:46;;;;;;;1.53;0.63;;;7.50;99.90;;;;;;5020379;28;20193;-69
2023/10/21 00:21:13;;;;;;;1.53;0.73;;;7.50;99.90;;;;;;5012806;28;20274;-69
2023/10/21 00:23:42;;;;;;;0.80;0.60;;;7.50;99.90;;;;;;5011354;28;20250;-70
2023/10/21 00:26:11;;;;;;;0.93;0.57;;;7.50;99.90;;;;;;5013380;28;20191;-69
2023/10/21 00:28:43;;;;;;;2.23;0.77;;;7.50;99.90;;;;;;5022867;28;20203;-69
2023/10/21 00:31:10;;;;;;;0.47;0.47;;;7.50;99.90;;;;;;5011233;28;20310;-70
2023/10/21 00:33:37;;;;;;;0.70;0.70;;;7.60;99.90;;;;;;5016160;28;20211;-70
2023/10/21 00:36:04;;;;;;;0.67;0.60;;;7.60;99.90;;;;;;5011723;28;20200;-69
2023/10/21 00:38:31;;;;;;;0.73;0.50;;;7.60;99.90;;;;;;5013817;28;20196;-70
2023/10/21 00:40:58;;;;;;;0.60;0.60;;;7.60;99.90;;;;;;5012494;28;20251;-69
2023/10/21 00:43:33;;;;;;;0.60;0.60;;;7.60;99.90;;;;;;5018877;28;20195;-69
2023/10/21 00:46:05;;;;;;;0.40;0.40;;;7.60;99.90;;;;;;5011048;28;20285;-69
2023/10/21 00:48:33;;;;;;;1.47;0.73;;;7.70;99.90;;;;;;5017174;28;20195;-69
2023/10/21 00:51:00;;;;;;;0.83;0.67;;;7.70;99.90;;;;;;5011593;28;20196;-69
2023/10/21 00:53:27;;;;;;;0.90;0.80;;;7.60;99.90;;;;;;5013513;28;20668;-69
2023/10/21 00:55:54;;;;;;;0.60;0.60;;;7.60;99.90;;;;;;5010342;28;20215;-70
2023/10/21 00:58:22;;;;;;;0.73;0.73;;;7.60;99.90;;;;;;5013103;28;20199;-70
2023/10/21 01:00:51;;;;;;;0.70;0.70;;;7.60;99.90;;;;;;5009595;28;20662;-69
2023/10/21 01:03:19;;;;;;;0.53;0.53;;;7.60;99.90;;;;;;5012061;28;20241;-69
2023/10/21 01:05:46;;;;;;;0.40;0.40;;;7.60;99.90;;;;;;5011205;28;20243;-69
2023/10/21 01:08:13;;;;;;;1.60;0.60;;;7.60;99.90;;;;;;5009789;28;20683;-69
2023/10/21 01:10:42;;;;;;;0.43;0.43;;;7.60;99.90;;;;;;5011491;28;20191;-70
2023/10/21 01:13:09;;;;;;;0.50;0.50;;;7.60;99.90;;;;;;5016352;28;20270;-70
2023/10/21 01:15:36;;;;;;;0.50;0.50;;;7.60;99.90;;;;;;5009767;28;20262;-70
2023/10/21 01:18:04;;;;;;;1.60;0.70;;;7.70;99.90;;;;;;5012035;28;20203;-70
2023/10/21 01:20:33;;;;;;;0.50;0.50;;;7.70;99.90;;;;;;5009596;28;20208;-70
2023/10/21 01:23:00;;;;;;;0.87;0.67;;;7.70;99.90;;;;;;5014633;28;20623;-70
2023/10/21 01:25:29;;;;;;;0.50;0.50;;;7.70;99.90;;;;;;5011532;28;20639;-70
2023/10/21 01:27:56;;;;;;;0.70;0.70;;;7.70;99.90;;;;;;5013162;28;20195;-70
2023/10/21 01:30:23;;;;;;;0.93;0.90;;;7.70;99.90;;;;;;5006129;28;20659;-70
2023/10/21 01:32:51;;;;;;;0.97;0.67;;;7.70;99.90;;;;;;5011226;28;21707;-70
2023/10/21 01:35:19;;;;;;;0.50;0.50;;;7.70;99.90;;;;;;5009549;28;20203;-70
2023/10/21 01:37:46;;;;;;;0.50;0.50;;;7.80;99.90;;;;;;5006664;28;20230;-70
2023/10/21 01:40:14;;;;;;;0.70;0.70;;;7.80;99.90;;;;;;5000858;28;20203;-70
2023/10/21 01:42:42;;;;;;;1.70;0.60;;;7.80;99.90;;;;;;5010726;28;20545;-70
2023/10/21 01:45:10;;;;;;;0.47;0.40;;;7.80;99.90;;;;;;5000900;28;20722;-70
2023/10/21 01:47:37;;;;;;;0.50;0.50;;;7.80;99.90;;;;;;5010295;28;20200;-70
2023/10/21 01:50:07;;;;;;;0.50;0.50;;;7.80;99.90;;;;;;5006050;28;20345;-70
2023/10/21 01:52:36;;;;;;;0.37;0.37;;;7.90;99.90;;;;;;5009989;28;20672;-70
2023/10/21 01:55:04;;;;;;;0.40;0.40;;;7.90;99.90;;;;;;5018858;28;20199;-69
2023/10/21 01:57:32;;;;;;;0.60;0.60;;;8.00;99.90;;;;;;5010228;28;20242;-69
2023/10/21 02:00:01;;;;;;;0.50;0.50;;;8.00;99.90;;;;;;5015055;28;20611;-70
2023/10/21 02:02:28;;;;;;;0.50;0.50;;;8.10;99.90;;;;;;5004702;28;20573;-69
2023/10/21 02:04:56;;;;;;;0.60;0.60;;;8.10;99.90;;;;;;5014930;28;20301;-70
2023/10/21 02:07:23;;;;;;;0.60;0.60;;;8.20;99.90;;;;;;5009254;28;20280;-70
2023/10/21 02:09:51;;;;;;;0.50;0.50;;;8.20;99.90;;;;;;5013129;28;20200;-70
2023/10/21 02:12:18;;;;;;;0.60;0.60;;;8.30;99.90;;;;;;5008715;28;20263;-70
2023/10/21 02:14:45;;;;;;;0.60;0.60;;;8.30;99.90;;;;;;5010101;28;20204;-70
2023/10/21 02:17:13;;;;;;;0.50;0.50;;;8.30;99.90;;;;;;5009236;28;20204;-70
2023/10/21 02:19:40;;;;;;;0.60;0.50;;;8.30;99.90;;;;;;5009172;28;20279;-70
2023/10/21 02:22:07;;;;;;;0.87;0.70;;;8.30;99.90;;;;;;5009921;28;20207;-69
2023/10/21 02:24:36;;;;;;;1.27;0.70;;;8.30;99.90;;;;;;5015789;28;20649;-69
2023/10/21 02:27:03;;;;;;;0.70;0.70;;;8.30;99.90;;;;;;5008553;28;20231;-69
2023/10/21 02:29:30;;;;;;;0.57;0.57;;;8.20;99.90;;;;;;5014225;28;20662;-69
2023/10/21 02:31:57;;;;;;;0.80;0.70;;;8.30;99.90;;;;;;5009857;28;20203;-70
2023/10/21 02:34:26;;;;;;;0.60;0.60;;;8.30;99.90;;;;;;5012358;28;20191;-70
2023/10/21 02:36:53;;;;;;;0.70;0.70;;;8.30;99.90;;;;;;5010433;28;20815;-70
2023/10/21 02:39:20;;;;;;;0.60;0.60;;;8.30;99.90;;;;;;5010868;28;20195;-70
2023/10/21 02:41:47;;;;;;;0.60;0.60;;;8.30;99.90;;;;;;5008373;28;20208;-70
2023/10/21 02:44:15;;;;;;;0.70;0.70;;;8.30;99.90;;;;;;5012336;28;20255;-69
2023/10/21 02:46:42;;;;;;;0.70;0.70;;;8.30;99.90;;;;;;5008689;28;20541;-69
2023/10/21 02:49:09;;;;;;;0.50;0.50;;;8.30;99.90;;;;;;5008979;28;20201;-69
2023/10/21 02:51:39;;;;;;;0.50;0.50;;;8.30;99.90;;;;;;5010355;28;20199;-69
2023/10/21 02:54:06;;;;;;;0.40;0.40;;;8.30;99.90;;;;;;5014624;28;20197;-69
2023/10/21 02:56:35;;;;;;;0.67;0.67;;;8.40;99.90;;;;;;5008377;28;20210;-69
2023/10/21 02:59:03;;;;;;;0.60;0.60;;;8.40;99.90;;;;;;5010869;28;20221;-69
2023/10/21 03:01:30;;;;;;;0.77;0.50;;;8.40;99.90;;;;;;5008073;28;20261;-69
2023/10/21 03:03:57;;;;;;;0.53;0.50;;;8.40;99.90;;;;;;5010934;28;20189;-69
2023/10/21 03:06:24;;;;;;;0.60;0.60;;;8.40;99.90;;;;;;5009777;28;20310;-69
2023/10/21 03:08:52;;;;;;;0.70;0.57;;;8.40;99.90;;;;;;5009521;28;20202;-69
2023/10/21 03:11:19;;;;;;;0.50;0.50;;;8.50;99.90;;;;;;5005757;28;20338;-69
2023/10/21 03:13:47;;;;;;;0.50;0.50;;;8.40;99.90;;;;;;5004461;28;20314;-70
2023/10/21 03:16:15;;;;;;;0.50;0.50;;;8.50;99.90;;;;;;5009792;28;20195;-69
2023/10/21 03:18:45;;;;;;;0.70;0.70;;;8.50;99.90;;;;;;5009354;28;20260;-70
2023/10/21 03:21:12;;;;;;;0.50;0.50;;;8.50;99.90;;;;;;4999414;28;20198;-70
2023/10/21 03:23:39;;;;;;;0.40;0.40;;;8.50;99.90;;;;;;5011184;28;20284;-69
2023/10/21 03:26:08;;;;;;;0.37;0.37;;;8.50;99.90;;;;;;5009728;28;20298;-69
2023/10/21 03:28:36;;;;;;;0.40;0.40;;;8.50;99.90;;;;;;5010000;28;20204;-69
2023/10/21 03:31:04;;;;;;;0.50;0.50;;;8.50;99.90;;;;;;5018895;28;20205;-70
2023/10/21 03:33:32;;;;;;;0.50;0.50;;;8.60;99.90;;;;;;5013625;28;20585;-70
2023/10/21 03:36:00;;;;;;;0.40;0.40;;;8.60;99.90;;;;;;5020893;28;20234;-70
2023/10/21 03:38:29;;;;;;;0.57;0.40;;;8.60;99.90;;;;;;5005274;28;20206;-70
2023/10/21 03:40:57;;;;;;;0.40;0.40;;;8.70;99.90;;;;;;5019936;28;20210;-69
2023/10/21 03:43:26;;;;;;;0.30;0.30;;;8.70;99.90;;;;;;5012319;28;20666;-69
2023/10/21 03:45:54;;;;;;;0.43;0.43;;;8.70;99.90;;;;;;5018573;28;20632;-70
2023/10/21 03:48:22;;;;;;;0.40;0.40;;;8.70;99.90;;;;;;5012841;28;20225;-69
2023/10/21 03:50:49;;;;;;;0.43;0.37;;;8.70;99.90;;;;;;5015616;28;20209;-69
2023/10/21 03:53:16;;;;;;;0.30;0.30;;;8.80;99.90;;;;;;5013316;28;20204;-69
2023/10/21 03:55:44;;;;;;;0.40;0.40;;;8.80;99.90;;;;;;5015976;28;20272;-69
2023/10/21 03:58:11;;;;;;;0.33;0.33;;;8.80;99.90;;;;;;5010836;28;20202;-69
2023/10/21 04:00:40;;;;;;;0.40;0.40;;;8.80;99.90;;;;;;5010931;28;20313;-70
2023/10/21 04:03:07;;;;;;;0.53;0.50;;;8.80;99.90;;;;;;5008367;28;20214;-70
2023/10/21 04:05:35;;;;;;;0.80;0.80;;;8.80;99.90;;;;;;5012472;28;20203;-69
2023/10/21 04:08:04;;;;;;;0.53;0.53;;;8.80;99.90;;;;;;5010811;28;20691;-70
2023/10/21 04:10:32;;;;;;;0.87;0.60;;;8.80;99.90;;;;;;5018741;28;20197;-70
2023/10/21 04:13:01;;;;;;;0.60;0.60;;;8.70;99.90;;;;;;5010817;28;20269;-70
2023/10/21 04:15:28;;;;;;;0.50;0.50;;;8.80;99.90;;;;;;5017499;28;20195;-70
2023/10/21 04:17:56;;;;;;;0.73;0.73;;;8.70;99.90;;;;;;5010108;28;20199;-69
2023/10/21 04:20:24;;;;;;;0.83;0.60;;;8.70;99.90;;;;;;5012154;28;20193;-70
2023/10/21 04:22:51;;;;;;;1.23;0.67;;;8.70;99.90;;;;;;5001990;28;20590;-70
2023/10/21 04:25:18;;;;;;;1.20;0.80;;;8.70;99.90;;;;;;5014195;28;20190;-69
2023/10/21 04:27:45;;;;;;;1.00;0.70;;;8.60;99.90;;;;;;5011602;28;20208;-69
2023/10/21 04:30:13;;;;;;;0.97;0.87;;;8.60;99.90;;;;;;5011565;28;20258;-71
2023/10/21 04:32:40;;;;;;;0.90;0.73;;;8.60;99.90;;;;;;5012083;28;20265;-70
2023/10/21 04:35:09;;;;;;;0.60;0.60;;;8.60;99.90;;;;;;5011945;28;20194;-70
2023/10/21 04:37:36;;;;;;;1.87;0.50;;;8.60;99.90;;;;;;5008470;28;20284;-70
2023/10/21 04:40:05;;;;;;;0.70;0.70;;;8.60;99.90;;;;;;5013561;28;20197;-70
2023/10/21 04:42:32;;;;;;;0.70;0.60;;;8.60;99.90;;;;;;5011619;28;20274;-70
2023/10/21 04:44:59;;;;;;;0.70;0.70;;;8.60;99.90;;;;;;5012054;28;20590;-70
2023/10/21 04:47:27;;;;;;;0.80;0.80;;;8.60;99.90;;;;;;5010892;28;20249;-70
2023/10/21 04:49:55;;;;;;;0.80;0.70;;;8.60;99.90;;;;;;5010583;28;20263;-70
2023/10/21 04:52:24;;;;;;;0.67;0.67;;;8.60;99.90;;;;;;5014448;28;20200;-70
2023/10/21 04:54:52;;;;;;;0.50;0.50;;;8.60;99.90;;;;;;5015337;28;20208;-71
2023/10/21 04:57:19;;;;;;;0.50;0.50;;;8.60;99.90;;;;;;5008523;28;20282;-71
2023/10/21 04:59:46;;;;;;;0.70;0.70;;;8.60;99.90;;;;;;5011867;28;20207;-70
2023/10/21 05:02:13;;;;;;;0.43;0.43;;;8.70;99.90;;;;;;5015542;28;20266;-70
2023/10/21 05:04:40;;;;;;;0.77;0.60;;;8.70;99.90;;;;;;5011004;28;20682;-70
2023/10/21 05:07:08;;;;;;;0.50;0.50;;;8.70;99.90;;;;;;5010252;28;20237;-70
2023/10/21 05:09:36;;;;;;;0.50;0.50;;;8.70;99.90;;;;;;5011303;28;20203;-70
2023/10/21 05:12:04;;;;;;;0.90;0.60;;;8.70;99.90;;;;;;5022820;28;20200;-71
2023/10/21 05:14:31;;;;;;;0.93;0.70;;;8.70;99.90;;;;;;5011034;28;20337;-70
2023/10/21 05:16:58;;;;;;;0.60;0.60;;;8.70;99.90;;;;;;5020326;28;20229;-71
2023/10/21 05:19:25;;;;;;;0.70;0.70;;;8.70;99.90;;;;;;5007251;28;20211;-70
2023/10/21 05:21:52;;;;;;;0.60;0.60;;;8.70;99.90;;;;;;5019263;28;20206;-70
2023/10/21 05:24:19;;;;;;;0.53;0.53;;;8.70;99.90;;;;;;5006763;28;20198;-70
2023/10/21 05:26:47;;;;;;;1.27;1.17;;;8.70;99.90;;;;;;5016934;28;20191;-70
2023/10/21 05:29:14;;;;;;;1.20;0.90;;;8.80;99.90;;;;;;5010886;28;20195;-70
2023/10/21 05:31:41;;;;;;;0.80;0.80;;;8.70;99.90;;;;;;5016023;28;20201;-70
2023/10/21 05:34:08;;;;;;;0.70;0.70;;;8.80;99.90;;;;;;5010763;28;20223;-70
2023/10/21 05:36:35;;;;;;;0.50;0.50;;;8.80;99.90;;;;;;5013062;28;20205;-70
2023/10/21 05:39:04;;;;;;;0.83;0.83;;;8.70;99.90;;;;;;5005513;28;20301;-70
2023/10/21 05:41:31;;;;;;;0.60;0.60;;;8.80;99.90;;;;;;5011443;28;20207;-70
2023/10/21 05:43:59;;;;;;;0.83;0.80;;;8.80;99.90;;;;;;5010963;28;20198;-70
2023/10/21 05:46:26;;;;;;;1.07;1.07;;;8.80;99.90;;;;;;5009168;28;20728;-71
2023/10/21 05:48:53;;;;;;;0.70;0.70;;;8.80;99.90;;;;;;5009004;28;20309;-70
2023/10/21 05:51:20;;;;;;;0.60;0.60;;;8.80;99.90;;;;;;5016024;28;20570;-71
2023/10/21 05:53:47;;;;;;;0.50;0.50;;;8.80;99.90;;;;;;5015072;28;20244;-70
2023/10/21 05:56:16;;;;;;;0.43;0.43;;;8.80;99.90;;;;;;5013718;28;20291;-69
2023/10/21 05:58:43;;;;;;;0.60;0.60;;;8.90;99.90;;;;;;5008466;28;20209;-70
2023/10/21 06:01:12;;;;;;;0.67;0.67;;;8.80;99.90;;;;;;5011086;28;20211;-69
2023/10/21 06:03:40;;;;;;;0.87;0.87;;;8.90;99.90;;;;;;5005642;28;20344;-70
2023/10/21 06:06:07;;;;;;;1.03;0.93;;;8.90;99.90;;;;;;5014080;28;20332;-69
2023/10/21 06:08:34;;;;;;;1.20;1.03;;;8.90;99.90;;;;;;5010268;28;20256;-70
2023/10/21 06:11:01;;;;;;;1.60;1.50;;;9.00;99.90;;;;;;5011485;28;20209;-69
2023/10/21 06:13:28;;;;;;;2.30;1.93;;;9.00;99.90;;;;;;5010199;28;20214;-70
2023/10/21 06:15:55;;;;;;;3.70;1.97;;;8.90;99.90;;;;;;5010480;28;20198;-71
2023/10/21 06:18:24;;;;;;;2.50;1.77;;;8.90;99.90;;;;;;5010083;28;20692;-70
2023/10/21 06:20:52;;;;;;;1.50;1.20;;;8.90;99.90;;;;;;5010831;28;20189;-70
2023/10/21 06:23:19;;;;;;;1.27;1.17;;;8.90;99.90;;;;;;5009208;28;20197;-70
2023/10/21 06:25:46;;;;;;;1.70;1.40;;;8.90;99.90;;;;;;5010576;28;20718;-70
2023/10/21 06:28:14;;;;;;;1.63;1.10;;;9.00;99.90;;;;;;5010070;28;20230;-70
2023/10/21 06:30:41;;;;;;;1.63;1.40;;;9.00;99.90;;;;;;5011350;28;20609;-70
2023/10/21 06:33:09;;;;;;;1.03;0.93;;;9.00;99.90;;;;;;5012123;28;20302;-70
2023/10/21 06:35:38;;;;;;;0.73;0.73;;;9.00;99.90;;;;;;5009202;28;20205;-71
2023/10/21 06:38:06;;;;;;;0.87;0.87;;;9.00;99.90;;;;;;5016109;28;20236;-70
2023/10/21 06:40:34;;;;;;;0.90;0.90;;;9.00;99.90;;;;;;5009008;28;20272;-69
2023/10/21 06:43:01;;;;;;;1.00;0.90;;;9.00;99.90;;;;;;5015439;28;20198;-70
2023/10/21 06:45:28;;;;;;;0.83;0.80;;;9.00;99.90;;;;;;5009890;28;20279;-70
2023/10/21 06:47:55;;;;;;;1.00;1.00;;;9.00;99.90;;;;;;5013558;28;20195;-70
2023/10/21 06:50:22;;;;;;;1.17;0.60;;;9.00;99.90;;;;;;5008262;28;20691;-69
2023/10/21 06:52:50;;;;;;;0.60;0.60;;;9.10;99.90;;;;;;5012249;28;20265;-70
2023/10/21 06:55:17;;;;;;;1.00;0.77;;;9.10;99.90;;;;;;5010177;28;20198;-69
2023/10/21 06:57:45;;;;;;;0.70;0.70;;;9.10;99.90;;;;;;5010108;28;20238;-70
2023/10/21 07:00:13;;;;;;;0.80;0.80;;;9.10;99.90;;;;;;5009741;28;20201;-70
2023/10/21 07:02:40;;;;;;;0.80;0.80;;;9.10;99.90;;;;;;5016824;28;20249;-70
2023/10/21 07:05:09;;;;;;;0.60;0.60;;;9.10;99.90;;;;;;5000589;28;20194;-71
2023/10/21 07:07:38;;;;;;;0.73;0.73;;;9.10;99.90;;;;;;5009800;28;20238;-70
2023/10/21 07:10:09;;;;;;;0.70;0.70;;;9.10;99.90;;;;;;5013558;28;20210;-69
2023/10/21 07:12:38;;;;;;;2.30;0.80;;;9.20;99.90;;;;;;5017060;28;20214;-70
2023/10/21 07:15:07;;;;;;;1.00;0.67;;;9.20;99.90;;;;;;5013034;28;20211;-70
2023/10/21 07:17:34;;;;;;;0.50;0.50;;;9.20;99.90;;;;;;5017007;28;20282;-70
2023/10/21 07:20:01;;;;;;;0.80;0.80;;;9.20;99.90;;;;;;5013004;28;20221;-69
2023/10/21 07:22:28;;;;;;;0.93;0.83;;;9.20;99.90;;;;;;5014725;28;20280;-70
2023/10/21 07:24:56;;;;;;;0.60;0.60;;;9.20;99.90;;;;;;5012900;28;20220;-69
2023/10/21 07:27:26;;;;;;;0.77;0.77;;;9.20;99.90;;;;;;5012170;28;20207;-69
2023/10/21 07:29:55;;;;;;;0.60;0.60;;;9.30;99.90;;;;;;5013303;28;20294;-69
2023/10/21 07:32:23;;;;;;;0.50;0.50;;;9.30;99.90;;;;;;5018213;28;20195;-69
2023/10/21 07:34:51;;;;;;;1.10;1.00;;;9.20;99.90;;;;;;5012880;28;20212;-69
2023/10/21 07:37:18;;;;;;;1.10;0.97;;;9.20;99.90;;;;;;5017368;28;20218;-70
2023/10/21 07:39:45;;;;;;;0.90;0.80;;;9.20;99.90;;;;;;5011224;28;20212;-70
2023/10/21 07:42:12;;;;;;;0.70;0.70;;;9.20;99.90;;;;;;5015003;28;20193;-70
2023/10/21 07:44:41;;;;;;;0.60;0.60;;;9.20;99.90;;;;;;5012864;28;20191;-70
2023/10/21 07:47:08;;;;;;;0.80;0.80;;;9.30;99.90;;;;;;5014133;28;20609;-69
2023/10/21 07:49:35;;;;;;;0.80;0.80;;;9.30;99.90;;;;;;5011391;28;20741;-69
2023/10/21 07:52:03;;;;;;;0.77;0.70;;;9.30;99.90;;;;;;5015639;28;20879;-70
2023/10/21 07:54:30;;;;;;;0.73;0.70;;;9.30;99.90;;;;;;5004506;28;20214;-70
2023/10/21 07:56:57;;;;;;;1.73;1.53;;;9.30;99.90;;;;;;5013544;28;20203;-70
2023/10/21 07:59:27;;;;;;;1.60;1.33;;;9.30;99.90;;;;;;5012811;28;20206;-70
2023/10/21 08:01:56;;;;;;;1.33;1.20;;;9.40;99.90;;;;;;5013378;28;20244;-69
2023/10/21 08:04:23;;;;;;;1.50;1.37;;;9.40;99.90;;;;;;5007093;28;20964;-69
2023/10/21 08:06:51;;;;;;;3.73;1.23;;;9.40;99.90;;;;;;4994626;28;20251;-69
2023/10/21 08:09:19;;;;;;;1.60;1.30;;;9.40;99.90;;;;;;5020619;28;20269;-70
2023/10/21 08:11:46;;;;;;;1.03;1.00;;;9.40;99.90;;;;;;5013417;28;20225;-69
2023/10/21 08:14:14;;;;;;;1.20;1.03;;;9.40;99.90;;;;;;5017669;28;20244;-70
2023/10/21 08:16:42;;;;;;;1.10;1.00;;;9.40;99.90;;;;;;5012367;28;20200;-71
2023/10/21 08:19:11;;;;;;;1.00;0.90;;;9.40;99.90;;;;;;5017440;28;20260;-70
2023/10/21 08:21:39;;;;;;;1.07;1.03;;;9.40;99.90;;;;;;5012488;28;20563;-70
2023/10/21 08:24:07;;;;;;;0.90;0.90;;;9.40;99.90;;;;;;5019135;28;20202;-69
2023/10/21 08:26:34;;;;;;;1.47;1.03;;;9.40;99.90;;;;;;5011907;28;20686;-70
2023/10/21 08:29:02;;;;;;;1.40;1.20;;;9.40;99.90;;;;;;5018211;28;20546;-70
2023/10/21 08:31:29;;;;;;;1.00;0.90;;;9.40;99.90;;;;;;5010097;28;20610;-69
2023/10/21 08:33:56;;;;;;;1.23;1.13;;;9.40;99.90;;;;;;5015847;28;20235;-69
2023/10/21 08:36:26;;;;;;;1.57;1.30;;;9.40;99.90;;;;;;5011056;28;20680;-69
2023/10/21 08:38:53;;;;;;;1.47;1.37;;;9.50;99.90;;;;;;5011904;28;20259;-70
2023/10/21 08:41:21;;;;;;;1.40;1.30;;;9.40;99.90;;;;;;5011803;28;20689;-69
2023/10/21 08:43:50;;;;;;;1.63;1.43;;;9.40;99.90;;;;;;5012746;28;20299;-69
2023/10/21 08:46:18;;;;;;;1.40;1.30;;;9.50;99.90;;;;;;5011377;28;20286;-69
2023/10/21 08:48:47;;;;;;;1.50;1.40;;;9.50;99.90;;;;;;5011507;28;20207;-69
2023/10/21 08:51:19;;;;;;;1.40;1.30;;;9.50;99.90;;;;;;5012210;28;20654;-69
2023/10/21 08:53:52;;;;;;;1.50;1.40;;;9.50;99.90;;;;;;5011036;28;20658;-69
2023/10/21 08:56:19;;;;;;;1.30;1.20;;;9.50;99.90;;;;;;5009546;28;20224;-69
2023/10/21 08:58:47;;;;;;;1.37;1.27;;;9.50;99.90;;;;;;5014189;28;20623;-69
2023/10/21 09:01:15;;;;;;;0.80;0.80;;;9.50;99.90;;;;;;5010496;28;20341;-70
2023/10/21 09:03:43;;;;;;;0.90;0.90;;;9.50;99.90;;;;;;5014735;28;20222;-70
2023/10/21 09:06:12;;;;;;;1.47;1.27;;;9.50;99.90;;;;;;5005447;28;20809;-69
2023/10/21 09:08:41;;;;;;;0.83;0.80;;;9.50;99.90;;;;;;5012295;28;20559;-69
2023/10/21 09:11:10;;;;;;;0.90;0.90;;;9.50;99.90;;;;;;5011501;28;20310;-69
2023/10/21 09:13:39;;;;;;;1.13;1.07;;;9.60;99.90;;;;;;5012333;28;20251;-69
2023/10/21 09:16:19;;;;;;;0.80;0.80;;;9.60;99.90;;;;;;5010331;28;20206;-70
2023/10/21 09:19:00;;;;;;;0.70;0.70;;;9.60;99.90;;;;;;5011464;28;20285;-69
2023/10/21 09:21:45;;;;;;;1.00;1.00;;;9.70;99.90;;;;;;4990691;28;20242;-69
2023/10/21 09:24:21;;;;;;;1.00;1.00;;;9.60;99.90;;;;;;5009467;28;20527;-70
2023/10/21 09:26:51;;;;;;;1.30;1.20;;;9.60;99.90;;;;;;5003444;28;20203;-69
2023/10/21 09:29:20;;;;;;;1.10;1.00;;;9.60;99.90;;;;;;5010089;28;20331;-70
2023/10/21 09:31:51;;;;;;;1.30;1.20;;;9.70;99.90;;;;;;5011031;28;20198;-70
2023/10/21 09:34:24;;;;;;;1.53;1.27;;;9.70;99.90;;;;;;5005476;28;20225;-70
2023/10/21 09:36:53;;;;;;;1.20;1.07;;;9.70;99.90;;;;;;5010990;28;20191;-70
2023/10/21 09:39:21;;;;;;;1.30;1.20;;;9.70;99.90;;;;;;5015601;28;20667;-70
2023/10/21 09:41:50;;;;;;;2.10;1.40;;;9.70;99.90;;;;;;5009152;28;20302;-69
2023/10/21 09:44:17;;;;;;;2.77;1.83;;;9.70;99.90;;;;;;5006110;28;20190;-70
2023/10/21 09:46:45;;;;;;;2.43;1.67;;;9.70;99.90;;;;;;4998210;28;20198;-71
2023/10/21 09:49:14;;;;;;;2.30;1.70;;;9.70;99.90;;;;;;5010183;28;20702;-71
2023/10/21 09:51:51;;;;;;;1.90;1.67;;;9.70;99.90;;;;;;4999732;28;20195;-70
2023/10/21 09:54:27;;;;;;;2.17;1.97;;;9.70;99.90;;;;;;5014833;28;20286;-70
2023/10/21 09:56:56;;;;;;;1.60;1.50;;;9.70;99.90;;;;;;5004485;28;20262;-70
2023/10/21 09:59:25;;;;;;;1.80;1.70;;;9.70;99.90;;;;;;5010083;28;20229;-69
2023/10/21 10:01:53;;;;;;;2.10;1.70;;;9.80;99.90;;;;;;5007594;28;20204;-71
2023/10/21 10:04:22;;;;;;;1.60;1.40;;;9.80;99.90;;;;;;5011741;28;20191;-70
2023/10/21 10:06:58;;;;;;;1.40;1.30;;;9.80;99.90;;;;;;5008176;28;20286;-70
2023/10/21 10:09:27;;;;;;;2.20;2.00;;;9.80;99.90;;;;;;5009783;28;20225;-70
2023/10/21 10:11:59;;;;;;;2.10;1.90;;;9.80;99.90;;;;;;5008702;28;20318;-70
2023/10/21 10:14:28;;;;;;;1.90;1.80;;;9.90;99.90;;;;;;5013767;28;20275;-70
2023/10/21 10:16:55;;;;;;;2.33;2.10;;;9.90;99.90;;;;;;5009879;28;20205;-70
2023/10/21 10:19:39;;;;;;;2.23;2.03;;;9.90;99.90;;;;;;5011727;28;20266;-69
2023/10/21 10:22:29;;;;;;;1.83;1.47;;;9.90;99.90;;;;;;5010243;28;20198;-69
2023/10/21 10:24:57;;;;;;;1.60;1.50;;;9.80;99.90;;;;;;5011125;28;20184;-70
2023/10/21 10:27:38;;;;;;;1.90;1.60;;;9.90;99.90;;;;;;5010077;28;20621;-70
2023/10/21 10:30:14;;;;;;;1.53;1.43;;;9.90;99.90;;;;;;5013769;28;20341;-70
2023/10/21 10:32:46;;;;;;;1.53;1.30;;;9.90;99.90;;;;;;5010177;28;20261;-70
2023/10/21 10:35:29;;;;;;;1.70;1.60;;;9.90;99.90;;;;;;5013586;28;20242;-70
2023/10/21 10:37:56;;;;;;;1.47;1.37;;;9.90;99.90;;;;;;5008942;28;20566;-70
2023/10/21 10:40:34;;;;;;;1.50;1.40;;;9.90;99.90;;;;;;5010678;28;20536;-70
2023/10/21 10:43:04;;;;;;;1.80;1.50;;;9.90;99.90;;;;;;5001435;28;20303;-69
2023/10/21 10:45:34;;;;;;;1.47;1.33;;;9.90;99.90;;;;;;5021266;28;20594;-69
2023/10/21 10:48:02;;;;;;;1.30;1.20;;;9.90;99.90;;;;;;5013506;28;20195;-69
2023/10/21 10:50:30;;;;;;;2.60;2.07;;;10.00;99.90;;;;;;5021065;28;20208;-69
2023/10/21 10:52:59;;;;;;;2.83;1.67;;;10.00;99.90;;;;;;5008596;28;20200;-71
2023/10/21 10:55:26;;;;;;;1.50;1.40;;;10.00;99.90;;;;;;5016582;28;20690;-70
2023/10/21 10:57:54;;;;;;;2.07;1.40;;;10.10;99.90;;;;;;5012325;28;20199;-70
2023/10/21 11:00:22;;;;;;;1.87;1.03;;;10.10;99.90;;;;;;5014605;28;20532;-70
2023/10/21 11:02:50;;;;;;;1.40;1.30;;;10.10;99.90;;;;;;5005169;28;20187;-69
2023/10/21 11:05:20;;;;;;;1.43;1.20;;;10.10;99.90;;;;;;5015231;28;20218;-70
2023/10/21 11:07:47;;;;;;;1.30;1.20;;;10.20;99.90;;;;;;5012233;28;20318;-70
2023/10/21 11:10:20;;;;;;;1.40;1.30;;;10.20;99.90;;;;;;5009500;28;20203;-69
2023/10/21 11:12:48;;;;;;;1.00;1.00;;;10.20;99.90;;;;;;5012107;28;20620;-70
2023/10/21 11:15:16;;;;;;;0.83;0.83;;;10.20;99.90;;;;;;5014283;28;20298;-69
2023/10/21 11:17:47;;;;;;;1.70;0.97;;;10.20;99.90;;;;;;5011722;28;20686;-69
2023/10/21 11:20:15;;;;;;;1.43;1.10;;;10.20;99.90;;;;;;5013980;28;20205;-69
2023/10/21 11:22:42;;;;;;;1.17;1.07;;;10.20;99.90;;;;;;5013566;28;20193;-70
2023/10/21 11:25:10;;;;;;;1.20;1.10;;;10.20;99.90;;;;;;5013343;28;20306;-70
2023/10/21 11:27:39;;;;;;;1.20;1.10;;;10.30;99.90;;;;;;5011706;28;20212;-69
2023/10/21 11:30:08;;;;;;;1.23;1.13;;;10.30;99.90;;;;;;5014904;28;20200;-69
2023/10/21 11:32:37;;;;;;;1.07;1.00;;;10.30;99.90;;;;;;5017389;28;20276;-70
2023/10/21 11:35:09;;;;;;;0.90;0.90;;;10.30;99.90;;;;;;5014578;28;20220;-70
2023/10/21 11:37:38;;;;;;;2.10;1.67;;;10.30;99.90;;;;;;5006179;28;20208;-70
2023/10/21 11:40:09;;;;;;;1.00;1.00;;;10.40;99.90;;;;;;5011702;28;20261;-71
2023/10/21 11:42:38;;;;;;;1.20;1.10;;;10.40;99.90;;;;;;5013229;28;20195;-70
2023/10/21 11:45:07;;;;;;;1.50;1.40;;;10.40;99.90;;;;;;5013368;28;20198;-70
2023/10/21 11:47:35;;;;;;;1.17;1.13;;;10.40;99.90;;;;;;5020209;28;20210;-70
2023/10/21 11:50:03;;;;;;;1.50;1.10;;;10.40;99.90;;;;;;5012325;28;20199;-69
2023/10/21 11:52:32;;;;;;;1.13;1.03;;;10.50;99.90;;;;;;5028034;28;20192;-70
2023/10/21 11:58:28;;;;;;;0.80;0.80;;;10.50;99.90;;;;;;5002246;28;20662;-70
2023/10/21 12:07:19;;;;;;;1.73;1.63;;;10.50;99.90;;;;;;5014301;28;20227;-70
2023/10/21 12:12:38;;;;;;;5.03;1.90;;;10.50;99.90;;;;;;5014459;28;20242;-70
2023/10/21 12:18:27;;;;;;;2.43;2.20;;;10.50;99.90;;;;;;4954811;28;20207;-70
2023/10/21 12:32:44;;;;;;;3.43;2.53;;;10.50;99.90;;;;;;5015983;28;20204;-70
2023/10/21 12:35:26;;;;;;;5.97;3.50;;;11.00;99.90;;;;;;5012868;28;20292;-71
2023/10/21 12:38:21;;;;;;;4.30;3.30;;;10.50;99.90;;;;;;5009906;28;20188;-70
2023/10/21 12:41:07;;;;;;;5.63;3.43;;;10.50;99.90;;;;;;5004841;28;20207;-71
2023/10/21 12:43:36;;;;;;;8.10;3.80;;;10.40;99.90;;;;;;5011385;28;20215;-70
2023/10/21 12:46:15;;;;;;;5.67;3.67;;;10.40;99.90;;;;;;5011059;28;20295;-70
2023/10/21 12:48:44;;;;;;;7.33;4.13;;;10.40;99.90;;;;;;5011513;28;20215;-71
2023/10/21 12:51:14;;;;;;;4.73;3.37;;;10.40;99.90;;;;;;5011276;28;20206;-71
2023/10/21 12:53:42;;;;;;;5.90;4.20;;;10.40;99.90;;;;;;5013406;28;20215;-70
2023/10/21 12:56:09;;;;;;;6.33;3.50;;;10.40;99.90;;;;;;5013646;28;20304;-70
2023/10/21 12:58:39;;;;;;;4.80;3.70;;;10.40;99.90;;;;;;5011609;28;20208;-70
2023/10/21 13:01:09;;;;;;;7.43;4.10;;;10.50;99.90;;;;;;5011946;28;20193;-70
2023/10/21 13:03:37;;;;;;;7.97;4.40;;;10.50;99.90;;;;;;5004293;28;20206;-70
2023/10/21 13:06:05;;;;;;;6.10;4.73;;;10.50;99.90;;;;;;5009309;28;20613;-70
2023/10/21 13:08:32;;;;;;;5.60;3.80;;;10.50;99.90;;;;;;5004884;28;20196;-71
2023/10/21 13:10:59;;;;;;;5.63;3.53;;;10.50;99.90;;;;;;5008214;28;20224;-71
2023/10/21 13:13:28;;;;;;;4.70;3.43;;;10.50;99.90;;;;;;5003911;28;20610;-70
2023/10/21 13:15:56;;;;;;;4.83;3.50;;;10.50;99.90;;;;;;5011068;28;20249;-70
2023/10/21 13:18:23;;;;;;;5.80;3.83;;;10.50;99.90;;;;;;5012805;28;20296;-70
2023/10/21 13:20:52;;;;;;;4.57;3.10;;;10.50;99.90;;;;;;5011036;28;20206;-71
2023/10/21 13:23:19;;;;;;;3.67;2.60;;;10.50;99.90;;;;;;5011402;28;20199;-71
2023/10/21 13:25:46;;;;;;;5.13;3.37;;;10.60;99.90;;;;;;5011718;28;20202;-71
2023/10/21 13:28:13;;;;;;;6.57;4.13;;;10.60;99.90;;;;;;5005802;28;20192;-70
2023/10/21 13:30:42;;;;;;;6.80;4.40;;;10.60;99.90;;;;;;5006406;28;20525;-71